METAR Data
IDs: Format: Raw Decoded Include TAF

Data at: 1853 UTC 14 Dec 2018

KASL 141835Z AUTO 32014G18KT 10SM OVC009 12/10 A2980 RMK AO1 T01150098
KASL 141815Z AUTO 34012G17KT 10SM OVC009 12/10 A2980 RMK AO1 T01150100
KASL 141755Z AUTO 33010G18KT 10SM OVC007 12/10 A2980 RMK AO1 60029 T01150102 10115 20100
KASL 141735Z AUTO 35012G18KT 10SM OVC007 12/10 A2981 RMK AO1 T01150103
KASL 141715Z AUTO 34009KT 10SM OVC005 12/10 A2981 RMK AO1 T01150104
KASL 141655Z AUTO 33010G15KT 10SM OVC005 12/11 A2981 RMK AO1 P0004 T01150105
KASL 141635Z AUTO 31010KT OVC005 10/09 A2980 RMK AO1 P0003 T01040094
KASL 141615Z AUTO 33007KT OVC005 10/09 A2981 RMK AO1 P0001 T01000090
KASL 141555Z AUTO 31009KT 10SM OVC005 10/09 A2980 RMK AO1 P0001 T01000090
KASL 141535Z AUTO 31009KT 10SM BKN007 OVC011 10/09 A2980 RMK AO1 P0001 T01000090
KASL 141515Z AUTO 31008KT 7SM OVC007 10/09 A2979 RMK AO1 P0001 T01030093
KASL 141455Z AUTO 31006KT 10SM OVC007 10/09 A2979 RMK AO1 P0001 60024 T01000090
KASL 141435Z AUTO 32006KT 10SM OVC007 10/09 A2978 RMK AO1 P0001 T01000091
KASL 141415Z AUTO 00000KT 10SM BKN007 BKN013 OVC050 10/09 A2978 RMK AO1 P0001 T01000091
KASL 141355Z AUTO 00000KT 7SM SCT007 SCT014 OVC050 10/09 A2978 RMK AO1 P0003 T01000091
KASL 141335Z AUTO 31009KT 5SM OVC055 10/09 A2976 RMK AO1 P0003 T01000091
KASL 141315Z AUTO 31007KT 7SM SCT020 SCT034 OVC049 10/09 A2976 RMK AO1 P0001 T01000091
KASL 141255Z AUTO 26003KT 5SM SCT004 BKN020 OVC047 10/09 A2975 RMK AO1 P0020 T01000091
KASL 141235Z AUTO 14007KT 4SM OVC004 10/09 A2976 RMK AO1 P0003 T01000091
KASL 141215Z AUTO 31008KT 5SM OVC004 10/09 A2971 RMK AO1 P0001 T01000091
KASL 141155Z AUTO 29005KT 7SM OVC004 10/09 A2972 RMK AO1 P0017 60017 70074 T01000091 10100 20079
KASL 141135Z AUTO 30004KT 7SM OVC002 10/09 A2972 RMK AO1 P0017 T01000091
KASL 141115Z AUTO 28003KT 1 1/4SM OVC002 10/09 A2973 RMK AO1 P0016 T01000091
KASL 141055Z AUTO 00000KT 3SM OVC002 10/09 A2973 RMK AO1 T01000091
KASL 141035Z AUTO 32003KT 2 1/2SM OVC002 10/09 A2972 RMK AO1 T01000091
KASL 141015Z AUTO 25003KT 4SM OVC002 10/09 A2973 RMK AO1 T01000091
KASL 140955Z AUTO 00000KT 1 1/4SM OVC002 10/09 A2974 RMK AO1 T01000091
KASL 140935Z AUTO 00000KT 1SM OVC002 10/09 A2974 RMK AO1 T01000091
KASL 140915Z AUTO 1/2SM OVC002 10/09 A2975 RMK AO1 T01000091
KASL 140855Z AUTO 28004KT 3/4SM OVC002 10/09 A2975 RMK AO1 T01000091
KASL 140835Z AUTO 00000KT 2 1/2SM OVC002 10/09 A2977 RMK AO1 T01000091
KASL 140815Z AUTO 00000KT 3SM OVC002 10/09 A2977 RMK AO1 T01000091
KASL 140755Z AUTO 00000KT 5SM BKN004 BKN060 BKN090 10/09 A2976 RMK AO1 T01000091
KASL 140735Z AUTO 31003KT 10SM BKN060 BKN090 10/09 A2976 RMK AO1 T01000091
KASL 140715Z AUTO 00000KT 10SM BKN060 BKN080 BKN090 10/09 A2977 RMK AO1 T01000091
KASL 140655Z AUTO 00000KT 4SM SCT060 08/07 A2975 RMK AO1 T00800070
KASL 140635Z AUTO 00000KT 3SM CLR 09/08 A2975 RMK AO1 T00850076
KASL 140615Z AUTO 00000KT 1SM BKN002 BKN110 09/08 A2975 RMK AO1 T00860077
KASL 140555Z AUTO 00000KT 1 1/4SM BKN002 OVC110 10/09 A2974 RMK AO1 T01000091 10141 20086 401650086
KASL 140535Z AUTO 00000KT 1/2SM BKN002 OVC110 09/08 A2975 RMK AO1 T00860076
KASL 140515Z AUTO 00000KT 1 1/2SM OVC110 10/09 A2975 RMK AO1 T01000090
KASL 140455Z AUTO 00000KT 1/2SM BKN110 10/09 A2975 RMK AO1 T01000090
KASL 140435Z AUTO 00000KT 4SM CLR 10/09 A2975 RMK AO1 T01000087
KASL 140415Z AUTO 00000KT 10SM CLR 12/10 A2976 RMK AO1 T01150100
KASL 140355Z AUTO 00000KT 10SM CLR 12/10 A2976 RMK AO1 T01150103
KASL 140335Z AUTO 29004KT 10SM CLR 12/11 A2975 RMK AO1 T01230113
KASL 140315Z AUTO 31004KT 10SM SCT001 13/12 A2974 RMK AO1 T01270117
KASL 140255Z AUTO 00000KT 1/2SM OVC001 13/12 A2974 RMK AO1 T01270117
KASL 140235Z AUTO 00000KT M1/4SM OVC001 13/12 A2973 RMK AO1 T01270117
KASL 140215Z AUTO 00000KT 1/2SM OVC003 14/13 A2974 RMK AO1 T01350125
KASL 140155Z AUTO 00000KT 1 1/4SM OVC003 14/13 A2973 RMK AO1 T01350125
KASL 140135Z AUTO 00000KT 2 1/2SM OVC003 14/13 A2972 RMK AO1 T01350125
KASL 140115Z AUTO 25003KT 2 1/2SM OVC003 14/13 A2973 RMK AO1 T01370127
KASL 140055Z AUTO 00000KT 1 1/4SM OVC003 14/12 A2971 RMK AO1 T01350123
KASL 140035Z AUTO 00000KT 5SM OVC003 14/13 A2971 RMK AO1 T01410130
KASL 140015Z AUTO 00000KT 7SM OVC005 14/13 A2972 RMK AO1 T01410130
KASL 132355Z AUTO 00000KT 10SM OVC005 14/13 A2971 RMK AO1 60006 T01410130 10165 20141
KASL 132335Z AUTO 00000KT 10SM OVC005 14/13 A2970 RMK AO1 T01410130
KASL 132315Z AUTO 00000KT 10SM OVC005 14/13 A2970 RMK AO1 T01410130
KASL 132255Z AUTO 00000KT 10SM OVC005 14/13 A2969 RMK AO1 T01410130
KASL 132235Z AUTO 00000KT 10SM BKN005 OVC013 14/13 A2970 RMK AO1 T01420130
KASL 132215Z AUTO 00000KT 10SM BKN005 OVC013 14/13 A2970 RMK AO1 T01420130
KASL 132155Z AUTO 00000KT 10SM OVC005 14/13 A2970 RMK AO1 T01430130
KASL 132135Z AUTO 14004KT 10SM OVC007 15/13 A2970 RMK AO1 T01450131
KASL 132115Z AUTO 12006KT 5SM BKN007 OVC019 15/13 A2969 RMK AO1 T01470133
KASL 132055Z AUTO 00000KT 10SM SCT007 BKN019 OVC025 15/13 A2969 RMK AO1 P0001 60006 T01450131
KASL 132035Z AUTO 13003KT 10SM SCT025 BKN030 OVC039 14/13 A2969 RMK AO1 T01440126
KASL 132015Z AUTO 12004KT 10SM BKN039 BKN046 OVC050 14/12 A2970 RMK AO1 T01430124
KASL 131955Z AUTO 16004KT 10SM SCT006 BKN050 OVC085 15/13 A2970 RMK AO1 T01470133
KASL 131935Z AUTO 14003KT 10SM OVC006 16/14 A2969 RMK AO1 T01550144
KASL 131915Z AUTO 15005KT 10SM OVC006 15/13 A2970 RMK AO1 T01450133
KASL 131855Z AUTO 16005KT 10SM SCT008 SCT070 OVC090 15/13 A2971 RMK AO1 P0005 T01450133
KASL 131835Z AUTO 16004KT 10SM SCT070 OVC090 14/13 A2972 RMK AO1 P0005 T01430132
KASL 131815Z AUTO 11008KT 7SM SCT070 OVC090 14/13 A2972 RMK AO1 P0002 T01410130
KASL 131755Z AUTO 00000KT 4SM BKN070 OVC090 14/13 A2978 RMK AO1 P0013 60051 T01410130 10141 20135
KASL 131735Z AUTO 18005KT 3SM SCT070 OVC090 14/13 A2980 RMK AO1 P0007 T01410130
KASL 131715Z AUTO 17008G14KT 10SM OVC090 14/13 A2981 RMK AO1 P0001 T01410130
KASL 131655Z AUTO 16008KT 10SM SCT075 OVC090 14/13 A2980 RMK AO1 P0007 T01410130
KASL 131635Z AUTO 15008G15KT 7SM SCT075 OVC090 14/13 A2980 RMK AO1 P0005 T01410130
KASL 131555Z AUTO 16009G14KT 7SM OVC100 14/13 A2980 RMK AO1 P0005 T01370126
KASL 131535Z AUTO 15008G16KT 10SM OVC100 14/13 A2981 RMK AO1 P0002 T01360125
KASL 131515Z AUTO 15003KT 10SM OVC100 14/12 A2982 RMK AO1 P0001 T01350121
KASL 131455Z AUTO 15006KT 10SM OVC100 14/12 A2981 RMK AO1 P0001 60025 T01350121
KASL 131435Z AUTO 17010G17KT 10SM SCT009 BKN110 14/13 A2983 RMK AO1 T01360125
KASL 131415Z AUTO 16008KT 10SM BKN009 BKN100 BKN120 14/13 A2981 RMK AO1 T01410130
KASL 131355Z AUTO 16010KT 10SM SCT007 BKN044 OVC110 14/13 A2981 RMK AO1 P0005 T01410130
KASL 131335Z AUTO 14007KT 10SM BKN007 OVC027 14/13 A2980 RMK AO1 P0005 T01410130
KASL 131315Z AUTO 14006KT 7SM SCT012 BKN028 OVC090 14/13 A2981 RMK AO1 P0003 T01410130
KASL 131255Z AUTO 14007KT 100V170 5SM SCT020 SCT060 OVC080 14/13 A2983 RMK AO1 P0018 T01410130
KASL 131235Z AUTO 16009G14KT 120V180 5SM SCT008 SCT055 OVC080 14/13 A2984 RMK AO1 P0012 T01380125
KASL 131215Z AUTO 17011G15KT 5SM BKN010 BKN022 OVC070 14/12 A2985 RMK AO1 P0004 T01350121
KASL 131155Z AUTO 16006KT 1SM OVC010 14/12 A2984 RMK AO1 P0027 60027 70027 T01350120 10136 20130
KASL 131135Z AUTO 16006KT 5SM BKN010 BKN025 OVC039 14/12 A2981 RMK AO1 P0002 T01350118
KASL 131115Z AUTO 17004KT 10SM BKN010 OVC035 14/12 A2981 RMK AO1 T01350116
KASL 131055Z AUTO 15004KT 10SM SCT010 OVC035 13/12 A2981 RMK AO1 T01340117
KASL 131035Z AUTO 15003KT 10SM BKN010 OVC035 13/11 A2981 RMK AO1 T01310113
KASL 131015Z AUTO 00000KT 10SM SCT010 BKN037 BKN045 13/11 A2981 RMK AO1 T01310113
KASL 130955Z AUTO 15005KT 10SM BKN037 OVC042 14/12 A2982 RMK AO1 T01350116
KASL 130935Z AUTO 15005KT 10SM BKN035 OVC043 14/12 A2984 RMK AO1 T01350116
KASL 130915Z AUTO 15004KT 10SM BKN035 OVC044 14/12 A2985 RMK AO1 T01350115
KASL 130855Z AUTO 16006KT 10SM SCT035 SCT047 BKN055 13/12 A2986 RMK AO1 T01330115
KASL 130835Z AUTO 16006KT 10SM SCT037 SCT046 BKN070 14/12 A2987 RMK AO1 T01350115
KASL 130815Z AUTO 16007KT 120V180 10SM BKN037 BKN070 OVC080 14/12 A2988 RMK AO1 T01350115
KASL 130755Z AUTO 15006KT 10SM BKN035 OVC043 14/12 A2988 RMK AO1 T01350115
KASL 130735Z AUTO 16005KT 10SM OVC033 14/11 A2988 RMK AO1 T01350113
KASL 130715Z AUTO 16005KT 10SM SCT023 OVC033 14/11 A2988 RMK AO1 T01350112
KASL 130655Z AUTO 16005KT 10SM SCT023 BKN033 BKN041 14/11 A2989 RMK AO1 T01350112